createdAt,value
2024-01-17T00:00:42.796Z,66.7
2024-01-17T00:01:47.105Z,66.7
2024-01-17T00:04:23.287Z,66.8
2024-01-17T00:05:32.663Z,66.8
2024-01-17T00:06:36.829Z,66.8
2024-01-17T00:07:40.770Z,66.8
2024-01-17T00:08:48.341Z,66.8
2024-01-17T00:09:49.627Z,66.8
2024-01-17T00:10:53.527Z,66.8
2024-01-17T00:11:55.039Z,66.8
2024-01-17T00:13:09.301Z,66.9
2024-01-17T00:14:12.928Z,66.9
2024-01-17T00:15:23.995Z,66.9
2024-01-17T00:16:40.392Z,66.9
2024-01-17T00:17:56.334Z,66.9
2024-01-17T00:18:58.600Z,66.9
2024-01-17T00:20:00.005Z,67
2024-01-17T00:21:06.679Z,67
2024-01-17T00:22:21.741Z,67
2024-01-17T00:24:40.192Z,67
2024-01-17T00:25:44.374Z,67
2024-01-17T00:29:19.058Z,67.1
2024-01-17T00:30:27.658Z,67.1
2024-01-17T00:31:39.144Z,67.1
2024-01-17T00:32:52.832Z,67.1
2024-01-17T00:34:00.049Z,67.1
2024-01-17T00:37:41.567Z,67.2
2024-01-17T00:38:47.203Z,67.2
2024-01-17T00:40:59.288Z,67.2
2024-01-17T00:42:12.396Z,67.2
2024-01-17T00:43:21.223Z,67.2
2024-01-17T00:44:31.005Z,67.2
2024-01-17T00:45:37.029Z,67.2
2024-01-17T00:46:48.010Z,67.2
2024-01-17T00:48:09.533Z,67.2
2024-01-17T00:49:23.245Z,67.2
2024-01-17T00:50:27.467Z,67.2
2024-01-17T00:51:41.938Z,67.3
2024-01-17T00:52:54.246Z,67.3
2024-01-17T00:54:09.851Z,67.3
2024-01-17T00:55:18.984Z,67.3
2024-01-17T00:56:29.705Z,67.3
2024-01-17T00:57:36.622Z,67.3
2024-01-17T00:58:42.882Z,67.3
2024-01-17T00:59:49.598Z,67.3
2024-01-17T01:01:26.547Z,67.3
2024-01-17T01:02:27.853Z,67.3
2024-01-17T01:03:29.439Z,67.3
2024-01-17T01:04:47.468Z,67.4
2024-01-17T01:05:54.727Z,67.4
2024-01-17T01:07:23.750Z,67.4
2024-01-17T01:08:32.674Z,67.4
2024-01-17T01:10:05.126Z,67.4
2024-01-17T01:11:32.081Z,67.4
2024-01-17T01:14:02.803Z,67.4
2024-01-17T01:16:06.149Z,67.4
2024-01-17T01:19:53.820Z,67.4
2024-01-17T01:23:10.819Z,67.4
2024-01-17T01:24:33.967Z,67.4
2024-01-17T01:30:41.892Z,67.5
2024-01-17T01:32:34.845Z,67.5
2024-01-17T01:34:36.476Z,67.5
2024-01-17T01:36:05.977Z,67.5
2024-01-17T01:37:20.037Z,67.5
2024-01-17T01:38:26.146Z,67.5
2024-01-17T01:39:32.304Z,67.6
2024-01-17T01:44:50.128Z,67.6
2024-01-17T01:45:54.244Z,67.6
2024-01-17T01:47:00.706Z,67.6
2024-01-17T01:48:09.524Z,67.6
2024-01-17T01:49:18.062Z,67.7
2024-01-17T01:51:43.329Z,67.7
2024-01-17T01:54:09.230Z,67.8
2024-01-17T01:55:15.334Z,67.8
2024-01-17T01:57:08.425Z,67.8
2024-01-17T01:58:09.671Z,67.8
2024-01-17T01:59:29.075Z,67.8
2024-01-17T02:00:39.171Z,67.8
2024-01-17T02:02:09.773Z,67.8
2024-01-17T02:03:13.792Z,67.8
2024-01-17T02:04:25.786Z,67.8
2024-01-17T02:05:37.062Z,67.8
2024-01-17T02:24:37.195Z,67.8
2024-01-17T02:26:00.455Z,68.1
2024-01-17T02:27:40.138Z,68.1
2024-01-17T02:28:54.630Z,68.1
2024-01-17T03:07:37.546Z,68.3
2024-01-17T03:08:41.788Z,68.3
2024-01-17T03:09:52.994Z,68.3
2024-01-17T03:11:32.178Z,68.3
2024-01-17T03:13:03.593Z,68.3
2024-01-17T03:15:35.976Z,68.3
2024-01-17T03:17:26.091Z,68.3
2024-01-17T03:19:22.697Z,68.4
2024-01-17T03:20:38.992Z,68.4
2024-01-17T03:21:40.165Z,68.4
2024-01-17T03:23:24.629Z,68.4
2024-01-17T03:25:01.673Z,68.4
2024-01-17T03:26:19.399Z,68.4
2024-01-17T03:30:01.315Z,68.4
2024-01-17T03:31:19.734Z,68.4
2024-01-17T03:32:45.375Z,68.4
2024-01-17T03:34:13.823Z,68.5
2024-01-17T03:35:27.644Z,68.5
2024-01-17T03:36:31.470Z,68.5
2024-01-17T03:37:37.600Z,68.5
2024-01-17T03:40:46.544Z,68.5
2024-01-17T03:43:13.334Z,68.6
2024-01-17T03:44:44.135Z,68.6
2024-01-17T03:46:04.320Z,68.6
2024-01-17T03:47:26.306Z,68.6
2024-01-17T03:49:46.451Z,68.6
2024-01-17T03:50:58.136Z,68.6
2024-01-17T03:52:09.022Z,68.6
2024-01-17T03:53:10.301Z,68.6
2024-01-17T03:54:40.115Z,68.6
2024-01-17T03:57:33.017Z,68.6
2024-01-17T04:00:44.341Z,68.7
2024-01-17T04:01:50.348Z,68.7
2024-01-17T04:03:22.229Z,68.7
2024-01-17T04:06:11.118Z,68.7
2024-01-17T04:10:12.451Z,68.8
2024-01-17T04:11:23.644Z,68.8
2024-01-17T04:12:45.217Z,68.8
2024-01-17T04:13:46.358Z,68.8
2024-01-17T04:15:15.694Z,68.8
2024-01-17T04:16:39.501Z,68.8
2024-01-17T04:18:06.548Z,68.8
2024-01-17T04:21:15.816Z,68.8
2024-01-17T04:22:17.025Z,68.8
2024-01-17T04:24:42.215Z,68.8
2024-01-17T04:26:02.454Z,68.8
2024-01-17T04:40:37.526Z,68.8
2024-01-17T04:42:19.718Z,68.9
2024-01-17T04:44:11.542Z,68.9
2024-01-17T04:45:15.398Z,68.9
2024-01-17T04:46:41.161Z,68.9
2024-01-17T04:48:05.103Z,68.9
2024-01-17T04:50:20.527Z,68.9
2024-01-17T04:51:33.406Z,68.9
2024-01-17T04:54:00.648Z,68.9
2024-01-17T04:56:15.169Z,68.9
2024-01-17T04:57:36.888Z,69
2024-01-17T04:58:45.418Z,69
2024-01-17T04:59:56.714Z,69
2024-01-17T05:42:12.199Z,69.4
2024-01-17T05:44:08.547Z,69.4
2024-01-17T05:46:41.533Z,69.4
2024-01-17T05:47:51.474Z,69.4
2024-01-17T05:49:23.348Z,69.4
2024-01-17T05:51:13.443Z,69.4
2024-01-17T05:52:20.033Z,69.4
2024-01-17T05:53:30.807Z,69.4
2024-01-17T05:54:39.658Z,69.4
2024-01-17T05:57:14.438Z,69.4
2024-01-17T05:59:53.553Z,69.4
2024-01-17T06:01:47.259Z,69.4
2024-01-17T06:02:49.093Z,69.4
2024-01-17T06:03:50.399Z,69.4
2024-01-17T06:04:51.591Z,69.4
2024-01-17T06:05:56.057Z,69.4
2024-01-17T06:06:57.345Z,69.4
2024-01-17T06:07:58.511Z,69.4
2024-01-17T06:08:59.846Z,69.4
2024-01-17T06:10:01.001Z,69.4
2024-01-17T06:11:02.166Z,69.4
2024-01-17T06:12:03.674Z,69.4
2024-01-17T06:13:05.127Z,69.5
2024-01-17T06:14:06.255Z,69.5
2024-01-17T06:15:07.656Z,69.5
2024-01-17T06:16:08.900Z,69.5
2024-01-17T06:17:10.058Z,69.5
2024-01-17T06:18:11.695Z,69.5
2024-01-17T06:19:12.865Z,69.5
2024-01-17T06:20:14.045Z,69.5
2024-01-17T06:21:15.293Z,69.5
2024-01-17T06:22:16.442Z,69.5
2024-01-17T06:23:17.615Z,69.6
2024-01-17T06:24:18.776Z,69.6
2024-01-17T06:25:19.941Z,69.6
2024-01-17T06:26:21.108Z,69.6
2024-01-17T06:27:22.585Z,69.6
2024-01-17T06:28:23.939Z,69.6
2024-01-17T06:29:25.069Z,69.7
2024-01-17T06:30:26.581Z,69.7
2024-01-17T06:31:27.998Z,69.7
2024-01-17T06:32:29.667Z,69.7
2024-01-17T06:33:31.333Z,69.7
2024-01-17T06:34:38.051Z,69.7
2024-01-17T06:35:39.841Z,69.7
2024-01-17T06:36:41.010Z,69.7
2024-01-17T06:37:42.208Z,69.8
2024-01-17T06:38:43.389Z,69.8
2024-01-17T06:39:44.539Z,69.8
2024-01-17T06:40:45.706Z,69.8
2024-01-17T06:41:46.920Z,69.8
2024-01-17T06:42:48.081Z,69.8
2024-01-17T06:43:49.270Z,69.8
2024-01-17T06:44:50.568Z,69.8
2024-01-17T06:45:51.715Z,69.8
2024-01-17T06:46:52.891Z,69.8
2024-01-17T06:47:54.412Z,69.8
2024-01-17T06:48:55.977Z,69.8
2024-01-17T06:49:57.259Z,69.8
2024-01-17T06:50:58.505Z,69.8
2024-01-17T06:51:59.679Z,69.8
2024-01-17T06:53:00.857Z,69.8
2024-01-17T06:54:02.198Z,69.8
2024-01-17T06:55:03.352Z,69.7
2024-01-17T06:56:04.507Z,69.7
2024-01-17T06:57:05.801Z,69.7
2024-01-17T06:58:07.000Z,69.7
2024-01-17T06:59:08.192Z,69.7
2024-01-17T07:00:09.553Z,69.7
2024-01-17T07:01:10.857Z,69.7
2024-01-17T07:02:12.055Z,69.7
2024-01-17T07:03:13.574Z,69.7
2024-01-17T07:04:15.015Z,69.7
2024-01-17T07:05:16.474Z,69.7
2024-01-17T07:06:17.914Z,69.7
2024-01-17T07:07:19.243Z,69.7
2024-01-17T07:08:20.540Z,69.7
2024-01-17T07:09:21.897Z,69.6
2024-01-17T07:10:23.073Z,69.7
2024-01-17T07:11:24.236Z,69.7
2024-01-17T07:12:25.480Z,69.7
2024-01-17T07:13:26.631Z,69.6
2024-01-17T07:14:27.985Z,69.6
2024-01-17T07:15:29.143Z,69.6
2024-01-17T07:16:30.368Z,69.6
2024-01-17T07:17:31.649Z,69.6
2024-01-17T07:18:33.644Z,69.6
2024-01-17T07:19:34.839Z,69.6
2024-01-17T07:20:36.108Z,69.6
2024-01-17T07:21:37.265Z,69.6
2024-01-17T07:22:38.431Z,69.6
2024-01-17T07:23:39.812Z,69.6
2024-01-17T07:24:40.952Z,69.6
2024-01-17T07:25:42.116Z,69.6
2024-01-17T07:26:43.304Z,69.7
2024-01-17T07:27:44.476Z,69.7
2024-01-17T07:28:45.644Z,69.7
2024-01-17T07:29:46.981Z,69.7
2024-01-17T07:30:48.140Z,69.7
2024-01-17T07:31:49.393Z,69.7
2024-01-17T07:32:51.268Z,69.7
2024-01-17T07:33:52.943Z,69.7
2024-01-17T07:34:54.648Z,69.7
2024-01-17T07:35:56.003Z,69.7
2024-01-17T07:36:57.179Z,69.7
2024-01-17T07:37:58.343Z,69.7
2024-01-17T07:38:59.634Z,69.7
2024-01-17T07:40:00.912Z,69.7
2024-01-17T07:41:02.071Z,69.7
2024-01-17T07:42:03.292Z,69.7
2024-01-17T07:43:04.451Z,69.7
2024-01-17T07:44:05.616Z,69.7
2024-01-17T07:45:06.945Z,69.7
2024-01-17T07:46:08.142Z,69.7
2024-01-17T07:47:09.282Z,69.7
2024-01-17T07:48:10.881Z,69.7
2024-01-17T07:49:12.669Z,69.7
2024-01-17T07:50:14.140Z,69.7
2024-01-17T07:51:15.687Z,69.7
2024-01-17T07:52:16.926Z,69.7
2024-01-17T07:53:18.095Z,69.7
2024-01-17T07:54:19.450Z,69.7
2024-01-17T07:55:20.658Z,69.7
2024-01-17T07:56:24.665Z,69.7
2024-01-17T07:57:25.937Z,69.7
2024-01-17T07:58:27.101Z,69.7
2024-01-17T07:59:28.328Z,69.7
2024-01-17T08:00:29.563Z,69.7
2024-01-17T08:01:30.817Z,69.7
2024-01-17T08:02:32.030Z,69.6
2024-01-17T08:03:33.566Z,69.6
2024-01-17T08:04:34.955Z,69.6
2024-01-17T08:05:36.512Z,69.6
2024-01-17T08:06:37.955Z,69.6
2024-01-17T08:07:39.198Z,69.6
2024-01-17T08:08:40.382Z,69.6
2024-01-17T08:09:41.533Z,69.6
2024-01-17T08:10:42.723Z,69.6
2024-01-17T08:11:43.942Z,69.6
2024-01-17T08:12:45.100Z,69.6
2024-01-17T08:13:46.277Z,69.6
2024-01-17T08:14:47.443Z,69.6
2024-01-17T08:15:48.642Z,69.5
2024-01-17T08:16:49.794Z,69.5
2024-01-17T08:17:51.746Z,69.5
2024-01-17T08:18:53.428Z,69.5
2024-01-17T08:19:54.717Z,69.5
2024-01-17T08:20:55.951Z,69.5
2024-01-17T08:21:57.120Z,69.5
2024-01-17T08:22:58.284Z,69.5
2024-01-17T08:23:59.523Z,69.5
2024-01-17T08:25:00.748Z,69.5
2024-01-17T08:26:01.916Z,69.5
2024-01-17T08:27:03.172Z,69.5
2024-01-17T08:28:04.319Z,69.5
2024-01-17T08:29:05.492Z,69.5
2024-01-17T08:30:06.932Z,69.5
2024-01-17T08:31:08.152Z,69.5
2024-01-17T08:32:09.362Z,69.5
2024-01-17T08:33:10.855Z,69.5
2024-01-17T08:34:12.702Z,69.5
2024-01-17T08:35:14.565Z,69.5
2024-01-17T08:36:16.122Z,69.5
2024-01-17T08:37:17.345Z,69.5
2024-01-17T08:38:18.515Z,69.5
2024-01-17T08:39:19.792Z,69.5
2024-01-17T08:40:20.950Z,69.5
2024-01-17T08:41:22.666Z,69.5
2024-01-17T08:42:23.819Z,69.5
2024-01-17T08:43:24.986Z,69.5
2024-01-17T08:44:26.149Z,69.5
2024-01-17T08:45:27.344Z,69.5
2024-01-17T08:46:28.528Z,69.5
2024-01-17T08:47:30.211Z,69.5
2024-01-17T08:48:31.653Z,69.6
2024-01-17T08:49:32.926Z,69.6
2024-01-17T08:50:34.273Z,69.6
2024-01-17T08:51:35.455Z,69.6
2024-01-17T08:52:36.634Z,69.6
2024-01-17T08:53:37.813Z,69.6
2024-01-17T08:54:38.995Z,69.6
2024-01-17T08:55:46.129Z,69.6
2024-01-17T08:56:47.603Z,69.6
2024-01-17T08:57:48.782Z,69.6
2024-01-17T08:58:49.941Z,69.6
2024-01-17T08:59:51.153Z,69.6
2024-01-17T09:00:52.377Z,69.6
2024-01-17T09:01:53.557Z,69.6
2024-01-17T09:02:54.874Z,69.6
2024-01-17T09:03:56.066Z,69.6
2024-01-17T09:04:57.264Z,69.6
2024-01-17T09:05:58.695Z,69.6
2024-01-17T09:07:00.486Z,69.6
2024-01-17T09:08:02.231Z,69.6
2024-01-17T09:09:03.621Z,69.6
2024-01-17T09:10:04.817Z,69.6
2024-01-17T09:11:05.998Z,69.5
2024-01-17T09:12:07.253Z,69.5
2024-01-17T09:13:11.134Z,69.4
2024-01-17T09:14:12.298Z,69.4
2024-01-17T09:15:14.031Z,69.3
2024-01-17T09:16:15.478Z,69.3
2024-01-17T09:17:16.732Z,69.2
2024-01-17T09:18:18.165Z,69.1
2024-01-17T09:19:19.873Z,69.1
2024-01-17T09:20:21.055Z,69
2024-01-17T09:21:22.292Z,69
2024-01-17T09:22:23.457Z,68.9
2024-01-17T09:23:24.627Z,68.8
2024-01-17T09:24:25.997Z,68.7
2024-01-17T09:25:27.149Z,68.7
2024-01-17T09:26:28.306Z,68.6
2024-01-17T09:27:29.472Z,68.6
2024-01-17T09:28:30.642Z,68.5
2024-01-17T09:29:32.006Z,68.5
2024-01-17T09:30:33.262Z,68.5
2024-01-17T09:31:34.448Z,68.5
2024-01-17T09:32:36.011Z,68.5
2024-01-17T09:33:37.781Z,68.5
2024-01-17T09:34:39.705Z,68.4
2024-01-17T09:36:03.392Z,68.4
2024-01-17T09:37:04.896Z,68.3
2024-01-17T09:38:06.839Z,68.3
2024-01-17T09:39:08.082Z,68.2
2024-01-17T09:40:09.288Z,68.1
2024-01-17T09:41:10.449Z,68
2024-01-17T09:42:11.707Z,67.9
2024-01-17T09:43:17.480Z,67.7
2024-01-17T09:44:20.053Z,67.6
2024-01-17T09:45:21.358Z,67.5
2024-01-17T09:46:22.532Z,67.4
2024-01-17T09:47:23.671Z,67.3
2024-01-17T09:48:25.304Z,67.2
2024-01-17T09:49:26.664Z,67.1
2024-01-17T09:50:27.852Z,67
2024-01-17T09:51:29.007Z,66.9
2024-01-17T09:52:30.173Z,66.9
2024-01-17T09:53:31.548Z,66.8
2024-01-17T09:54:32.747Z,66.7
2024-01-17T09:55:33.931Z,66.7
2024-01-17T09:56:35.742Z,66.7
2024-01-17T09:57:36.883Z,66.6
2024-01-17T09:58:38.049Z,66.5
2024-01-17T09:59:39.275Z,66.5
2024-01-17T10:00:40.541Z,66.5
2024-01-17T10:01:41.724Z,66.4
2024-01-17T10:02:43.066Z,66.4
2024-01-17T10:03:44.461Z,66.3
2024-01-17T10:04:45.692Z,66.3
2024-01-17T10:05:47.010Z,66.2
2024-01-17T10:06:48.435Z,66.2
2024-01-17T10:07:49.619Z,66.1
2024-01-17T10:08:51.068Z,66
2024-01-17T10:09:52.221Z,65.9
2024-01-17T10:10:53.402Z,65.8
2024-01-17T10:11:56.269Z,65.7
2024-01-17T10:12:57.440Z,65.6
2024-01-17T10:13:58.604Z,65.5
2024-01-17T10:15:00.038Z,65.4
2024-01-17T10:16:01.434Z,65.3
2024-01-17T10:17:02.594Z,65.2
2024-01-17T10:18:04.116Z,65.2
2024-01-17T10:19:05.884Z,65.1
2024-01-17T10:20:07.303Z,65
2024-01-17T10:21:08.642Z,64.9
2024-01-17T10:22:09.926Z,64.7
2024-01-17T10:23:11.097Z,64.6
2024-01-17T10:24:12.355Z,64.5
2024-01-17T10:25:13.604Z,64.4
2024-01-17T10:26:14.848Z,64.3
2024-01-17T10:27:16.263Z,64.1
2024-01-17T10:28:17.411Z,64
2024-01-17T10:29:18.577Z,63.8
2024-01-17T10:30:20.080Z,63.7
2024-01-17T10:31:21.266Z,63.5
2024-01-17T10:32:22.417Z,63.3
2024-01-17T10:33:23.884Z,63.2
2024-01-17T10:34:25.665Z,63
2024-01-17T10:35:26.970Z,62.8
2024-01-17T10:36:28.243Z,62.7
2024-01-17T10:37:29.393Z,62.6
2024-01-17T10:38:30.662Z,62.5
2024-01-17T10:39:31.845Z,62.5
2024-01-17T10:40:33.008Z,62.3
2024-01-17T10:41:34.244Z,62.3
2024-01-17T10:42:35.439Z,62.2
2024-01-17T10:43:36.585Z,62
2024-01-17T10:44:37.778Z,62
2024-01-17T10:45:39.010Z,61.9
2024-01-17T10:46:40.150Z,61.8
2024-01-17T10:47:41.562Z,61.7
2024-01-17T10:48:43.255Z,61.6
2024-01-17T10:49:44.551Z,61.5
2024-01-17T10:50:45.778Z,61.4
2024-01-17T10:51:46.933Z,61.2
2024-01-17T10:52:48.106Z,61.1
2024-01-17T10:53:57.416Z,61
2024-01-17T10:54:58.711Z,60.9
2024-01-17T10:55:59.901Z,60.8
2024-01-17T10:57:01.205Z,60.7
2024-01-17T10:58:02.376Z,60.5
2024-01-17T10:59:03.546Z,60.4
2024-01-17T11:00:05.059Z,60.2
2024-01-17T11:01:06.441Z,60.1
2024-01-17T11:02:07.591Z,60
2024-01-17T11:03:08.957Z,59.9
2024-01-17T11:04:10.267Z,59.8
2024-01-17T11:05:11.427Z,59.8
2024-01-17T11:06:13.040Z,59.7
2024-01-17T11:07:14.279Z,59.7
2024-01-17T11:08:15.430Z,59.7
2024-01-17T11:09:16.779Z,59.6
2024-01-17T11:10:17.971Z,59.6
2024-01-17T11:11:19.154Z,59.6
2024-01-17T11:12:20.463Z,59.5
2024-01-17T11:13:21.644Z,59.5
2024-01-17T11:14:22.826Z,59.4
2024-01-17T11:15:24.452Z,59.4
2024-01-17T11:16:25.706Z,59.4
2024-01-17T11:17:37.120Z,59.4
2024-01-17T11:18:38.714Z,59.4
2024-01-17T11:19:40.143Z,59.4
2024-01-17T11:20:41.539Z,59.3
2024-01-17T11:21:42.691Z,59.3
2024-01-17T11:22:43.874Z,59.3
2024-01-17T11:23:45.136Z,59.3
2024-01-17T11:24:46.286Z,59.3
2024-01-17T11:25:47.467Z,59.3
2024-01-17T11:26:48.695Z,59.3
2024-01-17T11:27:49.832Z,59.3
2024-01-17T11:28:51.018Z,59.3
2024-01-17T11:29:52.192Z,59.4
2024-01-17T11:30:53.346Z,59.4
2024-01-17T11:31:56.510Z,59.3
2024-01-17T11:32:58.098Z,59.3
2024-01-17T11:33:59.704Z,59.3
2024-01-17T11:35:00.943Z,59.2
2024-01-17T11:36:02.599Z,59.2
2024-01-17T11:37:03.837Z,59.1
2024-01-17T11:38:05.000Z,59.1
2024-01-17T11:39:06.223Z,59
2024-01-17T11:40:07.362Z,59
2024-01-17T11:41:08.823Z,59
2024-01-17T11:42:10.050Z,59
2024-01-17T11:43:11.761Z,58.9
2024-01-17T11:44:13.073Z,58.9
2024-01-17T11:45:16.119Z,58.8
2024-01-17T11:46:17.275Z,58.8
2024-01-17T11:47:18.441Z,58.8
2024-01-17T11:48:20.777Z,58.8
2024-01-17T11:49:22.138Z,58.8
2024-01-17T11:50:25.367Z,58.7
2024-01-17T11:51:26.833Z,58.7
2024-01-17T11:52:27.990Z,58.7
2024-01-17T11:53:29.156Z,58.7
2024-01-17T11:54:30.424Z,58.7
2024-01-17T11:55:31.599Z,58.6
2024-01-17T11:56:32.970Z,58.6
2024-01-17T11:57:34.195Z,58.6
2024-01-17T11:58:35.341Z,58.6
2024-01-17T11:59:36.593Z,58.5
2024-01-17T12:00:37.777Z,58.5
2024-01-17T12:01:38.969Z,58.5
2024-01-17T12:02:40.953Z,58.4
2024-01-17T12:03:42.125Z,58.4
2024-01-17T12:04:43.350Z,58.3
2024-01-17T12:05:44.557Z,58.3
2024-01-17T12:06:46.103Z,58.2
2024-01-17T12:07:47.498Z,58.2
2024-01-17T12:08:48.775Z,58.2
2024-01-17T12:09:49.950Z,58.2
2024-01-17T12:10:51.115Z,58.1
2024-01-17T12:11:52.709Z,58.1
2024-01-17T12:12:53.912Z,58.1
2024-01-17T12:13:55.587Z,58.1
2024-01-17T12:14:56.809Z,58
2024-01-17T12:15:57.993Z,58
2024-01-17T12:16:59.133Z,58
2024-01-17T12:18:00.745Z,57.9
2024-01-17T12:19:03.041Z,57.9
2024-01-17T12:20:04.420Z,57.8
2024-01-17T12:21:06.290Z,57.8
2024-01-17T12:22:07.770Z,57.7
2024-01-17T12:23:08.962Z,57.7
2024-01-17T12:24:10.310Z,57.6
2024-01-17T12:25:11.495Z,57.6
2024-01-17T12:26:12.661Z,57.6
2024-01-17T12:27:14.090Z,57.6
2024-01-17T12:28:15.320Z,57.5
2024-01-17T12:29:17.012Z,57.5
2024-01-17T12:30:18.260Z,57.5
2024-01-17T12:31:19.444Z,57.5
2024-01-17T12:32:20.602Z,57.5
2024-01-17T12:33:27.098Z,57.5
2024-01-17T12:34:28.399Z,57.5
2024-01-17T12:35:29.581Z,57.5
2024-01-17T12:36:30.725Z,57.5
2024-01-17T12:37:31.909Z,57.6
2024-01-17T12:38:33.058Z,57.6
2024-01-17T12:39:34.299Z,57.6
2024-01-17T12:40:35.446Z,57.6
2024-01-17T12:41:36.710Z,57.7
2024-01-17T12:42:37.913Z,57.7
2024-01-17T12:43:39.134Z,57.7
2024-01-17T12:44:40.306Z,57.7
2024-01-17T12:45:41.568Z,57.8
2024-01-17T12:46:42.728Z,57.8
2024-01-17T12:47:44.193Z,57.8
2024-01-17T12:48:45.726Z,57.8
2024-01-17T12:49:46.998Z,57.8
2024-01-17T12:50:48.306Z,57.8
2024-01-17T12:51:49.473Z,57.8
2024-01-17T12:52:50.710Z,57.9
2024-01-17T12:53:51.938Z,57.9
2024-01-17T12:54:53.107Z,57.9
2024-01-17T12:55:54.269Z,58
2024-01-17T12:56:55.701Z,58
2024-01-17T12:57:56.873Z,58
2024-01-17T12:58:58.036Z,58.1
2024-01-17T12:59:59.484Z,58.1
2024-01-17T13:01:01.343Z,58.1
2024-01-17T13:02:02.725Z,58.2
2024-01-17T13:03:04.075Z,58.2
2024-01-17T13:04:05.344Z,58.3
2024-01-17T13:05:06.632Z,58.3
2024-01-17T13:06:08.783Z,58.4
2024-01-17T13:07:14.657Z,58.4
2024-01-17T13:08:18.864Z,58.4
2024-01-17T13:09:20.411Z,58.5
2024-01-17T13:10:21.696Z,58.5
2024-01-17T13:11:25.116Z,58.6
2024-01-17T13:12:31.708Z,58.6
2024-01-17T13:13:35.045Z,58.6
2024-01-17T13:14:38.930Z,58.7
2024-01-17T13:15:45.072Z,58.7
2024-01-17T13:16:49.441Z,58.8
2024-01-17T13:18:59.480Z,58.8
2024-01-17T13:20:05.798Z,58.8
2024-01-17T13:21:09.735Z,58.8
2024-01-17T13:22:25.218Z,58.9
2024-01-17T13:23:29.428Z,58.9
2024-01-17T13:24:33.286Z,58.9
2024-01-17T13:25:37.396Z,58.9
2024-01-17T13:26:59.027Z,58.9
2024-01-17T13:28:10.839Z,59
2024-01-17T13:29:17.934Z,59
2024-01-17T13:30:25.133Z,59
2024-01-17T13:31:28.608Z,59.1
2024-01-17T13:32:38.932Z,59.1
2024-01-17T13:33:43.010Z,59.1
2024-01-17T13:34:44.860Z,59.2
2024-01-17T13:35:46.200Z,59.2
2024-01-17T13:36:47.380Z,59.3
2024-01-17T13:37:53.098Z,59.3
2024-01-17T13:38:56.946Z,59.4
2024-01-17T13:39:58.126Z,59.4
2024-01-17T13:41:03.694Z,59.5
2024-01-17T13:42:09.695Z,59.5
2024-01-17T13:43:10.837Z,59.5
2024-01-17T13:44:12.003Z,59.6
2024-01-17T13:45:13.474Z,59.6
2024-01-17T13:46:17.812Z,59.6
2024-01-17T13:47:18.976Z,59.7
2024-01-17T13:48:20.796Z,59.7
2024-01-17T13:49:25.083Z,59.7
2024-01-17T13:50:26.405Z,59.7
2024-01-17T13:51:27.688Z,59.8
2024-01-17T13:52:28.973Z,59.8
2024-01-17T13:53:30.911Z,59.8
2024-01-17T13:54:32.076Z,59.9
2024-01-17T13:55:33.217Z,59.9
2024-01-17T13:56:34.381Z,59.9
2024-01-17T13:57:35.545Z,60
2024-01-17T13:58:36.708Z,60
2024-01-17T13:59:38.038Z,60
2024-01-17T14:00:39.386Z,60.1
2024-01-17T14:01:40.591Z,60.1
2024-01-17T14:02:41.831Z,60.2
2024-01-17T14:03:43.265Z,60.2
2024-01-17T14:04:44.471Z,60.3
2024-01-17T14:05:45.708Z,60.3
2024-01-17T14:06:47.489Z,60.3
2024-01-17T14:07:48.744Z,60.4
2024-01-17T14:08:49.949Z,60.4
2024-01-17T14:09:51.170Z,60.5
2024-01-17T14:10:55.419Z,60.5
2024-01-17T14:11:56.658Z,60.5
2024-01-17T14:12:57.822Z,60.6
2024-01-17T14:13:59.041Z,60.6
2024-01-17T14:15:00.540Z,60.7
2024-01-17T14:16:01.880Z,60.7
2024-01-17T14:17:03.028Z,60.7
2024-01-17T14:18:04.439Z,60.8
2024-01-17T14:19:06.053Z,60.8
2024-01-17T14:20:07.265Z,60.8
2024-01-17T14:21:08.634Z,60.9
2024-01-17T14:22:09.800Z,60.9
2024-01-17T14:23:10.953Z,60.9
2024-01-17T14:24:12.269Z,61
2024-01-17T14:25:13.613Z,61
2024-01-17T14:26:14.788Z,61.1
2024-01-17T14:27:16.026Z,61.1
2024-01-17T14:28:17.192Z,61.2
2024-01-17T14:29:18.349Z,61.2
2024-01-17T14:30:20.038Z,61.2
2024-01-17T14:31:21.257Z,61.2
2024-01-17T14:32:22.448Z,61.3
2024-01-17T14:33:23.847Z,61.3
2024-01-17T14:34:25.108Z,61.3
2024-01-17T14:35:26.307Z,61.4
2024-01-17T14:36:27.688Z,61.4
2024-01-17T14:37:28.974Z,61.4
2024-01-17T14:38:30.119Z,61.5
2024-01-17T14:39:31.293Z,61.5
2024-01-17T14:40:32.498Z,61.5
2024-01-17T14:41:33.641Z,61.6
2024-01-17T14:42:34.806Z,61.6
2024-01-17T14:43:35.970Z,61.7
2024-01-17T14:44:37.942Z,61.7
2024-01-17T14:45:39.092Z,61.7
2024-01-17T14:46:40.254Z,61.7
2024-01-17T14:47:43.846Z,61.8
2024-01-17T14:48:45.600Z,61.8
2024-01-17T14:49:47.153Z,61.8
2024-01-17T14:50:48.425Z,61.9
2024-01-17T14:51:49.580Z,61.9
2024-01-17T14:52:50.738Z,61.9
2024-01-17T14:53:51.944Z,61.9
2024-01-17T14:54:53.098Z,62
2024-01-17T14:55:54.305Z,62
2024-01-17T14:56:55.494Z,62
2024-01-17T14:57:56.667Z,62.1
2024-01-17T14:58:57.816Z,62.1
2024-01-17T14:59:59.197Z,62.2
2024-01-17T15:01:00.701Z,62.2
2024-01-17T15:02:01.844Z,62.3
2024-01-17T15:03:03.185Z,62.3
2024-01-17T15:04:04.340Z,62.4
2024-01-17T15:05:11.332Z,62.4
2024-01-17T15:06:13.046Z,62.5
2024-01-17T15:07:14.798Z,62.6
2024-01-17T15:08:15.997Z,62.6
2024-01-17T15:09:17.243Z,62.7
2024-01-17T15:10:18.416Z,62.7
2024-01-17T15:11:19.605Z,62.8
2024-01-17T15:12:20.988Z,62.8
2024-01-17T15:13:22.141Z,62.9
2024-01-17T15:14:23.292Z,63
2024-01-17T15:15:24.656Z,63
2024-01-17T15:16:25.853Z,63.1
2024-01-17T15:17:27.288Z,63.2
2024-01-17T15:18:28.752Z,63.2
2024-01-17T15:19:30.260Z,63.3
2024-01-17T15:20:31.435Z,63.4
2024-01-17T15:21:32.601Z,63.4
2024-01-17T15:22:36.182Z,63.5
2024-01-17T15:23:37.481Z,63.5
2024-01-17T15:24:38.665Z,63.6
2024-01-17T15:25:39.842Z,63.7
2024-01-17T15:26:41.097Z,63.8
2024-01-17T15:27:42.257Z,63.8
2024-01-17T15:28:43.417Z,63.9
2024-01-17T15:29:45.038Z,63.9
2024-01-17T15:30:46.543Z,64
2024-01-17T15:31:47.800Z,64.1
2024-01-17T15:32:49.373Z,64.1
2024-01-17T15:33:50.806Z,64.2
2024-01-17T15:34:52.288Z,64.3
2024-01-17T15:35:53.500Z,64.3
2024-01-17T15:36:54.651Z,64.4
2024-01-17T15:37:55.821Z,64.4
2024-01-17T15:38:57.186Z,64.5
2024-01-17T15:39:58.510Z,64.6
2024-01-17T15:40:59.673Z,64.6
2024-01-17T15:42:00.980Z,64.7
2024-01-17T15:43:02.145Z,64.8
2024-01-17T15:44:03.311Z,64.8
2024-01-17T15:45:04.549Z,64.9
2024-01-17T15:46:05.691Z,64.9
2024-01-17T15:47:06.851Z,65
2024-01-17T15:48:08.542Z,65.1
2024-01-17T15:49:10.330Z,65.1
2024-01-17T15:50:11.579Z,65.2
2024-01-17T15:51:12.814Z,65.2
2024-01-17T15:52:14.019Z,65.3
2024-01-17T15:53:15.159Z,65.3
2024-01-17T15:54:16.411Z,65.4
2024-01-17T15:55:17.599Z,65.5
2024-01-17T15:56:18.769Z,65.5
2024-01-17T15:57:20.053Z,65.6
2024-01-17T15:58:21.215Z,65.6
2024-01-17T15:59:22.389Z,65.7
2024-01-17T16:00:23.631Z,65.7
2024-01-17T16:01:24.875Z,65.8
2024-01-17T16:02:26.066Z,65.9
2024-01-17T16:03:27.442Z,65.9
2024-01-17T16:04:28.617Z,66
2024-01-17T16:05:29.816Z,66
2024-01-17T16:06:31.400Z,66.1
2024-01-17T16:07:32.761Z,66.1
2024-01-17T16:08:33.946Z,66.2
2024-01-17T16:09:35.222Z,66.2
2024-01-17T16:10:36.374Z,66.3
2024-01-17T16:11:37.536Z,66.3
2024-01-17T16:12:38.756Z,66.4
2024-01-17T16:13:40.104Z,66.4
2024-01-17T16:14:41.309Z,66.5
2024-01-17T16:15:42.512Z,66.5
2024-01-17T16:16:43.701Z,66.6
2024-01-17T16:17:45.134Z,66.6
2024-01-17T16:18:46.904Z,66.7
2024-01-17T16:19:48.288Z,66.7
2024-01-17T16:20:49.493Z,66.8
2024-01-17T16:21:50.643Z,66.8
2024-01-17T16:22:51.809Z,66.8
2024-01-17T16:23:53.040Z,66.9
2024-01-17T16:24:54.255Z,66.9
2024-01-17T16:25:55.425Z,67
2024-01-17T16:26:56.686Z,67
2024-01-17T16:27:57.872Z,67.1
2024-01-17T16:28:59.010Z,67.1
2024-01-17T16:30:00.333Z,67.1
2024-01-17T16:31:01.693Z,67.2
2024-01-17T16:32:02.854Z,67.2
2024-01-17T16:33:04.410Z,67.2
2024-01-17T16:34:05.874Z,67.3
2024-01-17T16:35:07.478Z,67.4
2024-01-17T16:36:08.787Z,67.4
2024-01-17T16:37:09.983Z,67.4
2024-01-17T16:38:11.140Z,67.5
2024-01-17T16:39:12.403Z,67.5
2024-01-17T16:40:13.572Z,67.6
2024-01-17T16:41:14.727Z,67.6
2024-01-17T16:42:15.948Z,67.7
2024-01-17T16:43:17.148Z,67.7
2024-01-17T16:44:18.289Z,67.7
2024-01-17T16:45:19.569Z,67.8
2024-01-17T16:46:20.739Z,67.8
2024-01-17T16:47:21.905Z,67.8
2024-01-17T16:48:23.500Z,67.9
2024-01-17T16:49:24.957Z,67.9
2024-01-17T16:50:26.138Z,67.9
2024-01-17T16:51:27.392Z,68
2024-01-17T16:52:28.618Z,68
2024-01-17T16:53:29.773Z,68
2024-01-17T16:54:31.152Z,68.1
2024-01-17T16:55:32.468Z,68.1
2024-01-17T16:56:33.618Z,68.1
2024-01-17T16:57:34.786Z,68.2
2024-01-17T16:58:36.113Z,68.2
2024-01-17T16:59:42.563Z,68.2
2024-01-17T17:02:39.200Z,68.3
2024-01-17T17:03:40.872Z,68.3
2024-01-17T17:04:51.128Z,68.4
2024-01-17T17:05:52.555Z,68.4
2024-01-17T17:06:56.610Z,68.4
2024-01-17T17:08:07.791Z,68.5